createdAt,value
2018-09-04T00:01:50.733Z,16.20
2018-09-04T00:04:25.088Z,16.24
2018-09-04T00:06:59.152Z,16.22
2018-09-04T00:09:31.707Z,16.19
2018-09-04T00:12:05.459Z,16.18
2018-09-04T00:14:38.292Z,16.16
2018-09-04T00:17:11.109Z,16.17
2018-09-04T00:19:43.581Z,16.16
2018-09-04T00:22:16.487Z,16.15
2018-09-04T00:24:50.821Z,16.13
2018-09-04T00:27:24.548Z,16.11
2018-09-04T00:29:58.889Z,16.08
2018-09-04T00:32:32.317Z,16.03
2018-09-04T00:35:05.308Z,15.95
2018-09-04T00:37:39.052Z,15.90
2018-09-04T00:40:11.714Z,15.90
2018-09-04T00:42:45.084Z,15.90
2018-09-04T00:45:17.753Z,15.91
2018-09-04T00:47:50.440Z,15.93
2018-09-04T00:50:23.736Z,16.04
2018-09-04T00:52:57.028Z,16.12
2018-09-04T00:55:30.757Z,16.18
2018-09-04T00:58:03.817Z,16.16
2018-09-04T01:00:37.906Z,16.05
2018-09-04T01:03:11.831Z,15.95
2018-09-04T01:05:44.861Z,15.89
2018-09-04T01:08:17.752Z,15.89
2018-09-04T01:10:50.411Z,15.78
2018-09-04T01:13:22.964Z,15.71
2018-09-04T01:15:56.174Z,15.76
2018-09-04T01:18:29.586Z,15.68
2018-09-04T01:21:02.082Z,15.68
2018-09-04T01:23:35.056Z,15.68
2018-09-04T01:26:07.776Z,15.76
2018-09-04T01:28:40.518Z,15.80
2018-09-04T01:31:13.432Z,15.87
2018-09-04T01:33:46.023Z,15.89
2018-09-04T01:36:18.627Z,15.80
2018-09-04T01:38:52.961Z,15.77
2018-09-04T01:41:26.009Z,15.68
2018-09-04T01:43:58.537Z,15.61
2018-09-04T01:46:32.424Z,15.66
2018-09-04T01:49:04.914Z,15.59
2018-09-04T01:51:37.569Z,15.63
2018-09-04T01:54:10.744Z,15.55
2018-09-04T01:56:43.308Z,15.51
2018-09-04T01:59:15.832Z,15.65
2018-09-04T02:01:49.470Z,15.74
2018-09-04T02:04:22.053Z,15.86
2018-09-04T02:06:54.836Z,16.04
2018-09-04T02:09:28.916Z,16.14
2018-09-04T02:12:01.473Z,16.11
2018-09-04T02:14:34.801Z,16.02
2018-09-04T02:17:07.657Z,15.91
2018-09-04T02:19:40.188Z,15.84
2018-09-04T02:22:12.579Z,15.83
2018-09-04T02:24:47.848Z,15.85
2018-09-04T02:27:20.385Z,15.88
2018-09-04T02:29:53.220Z,15.79
2018-09-04T02:32:26.190Z,15.72
2018-09-04T02:34:58.798Z,15.70
2018-09-04T02:37:31.277Z,15.77
2018-09-04T02:40:05.164Z,15.74
2018-09-04T02:42:37.682Z,15.75
2018-09-04T02:45:12.471Z,15.75
2018-09-04T02:47:45.291Z,15.77
2018-09-04T02:50:17.867Z,15.79
2018-09-04T02:52:50.693Z,15.81
2018-09-04T02:55:23.971Z,15.81
2018-09-04T02:57:56.593Z,15.85
2018-09-04T03:00:29.351Z,15.79
2018-09-04T03:03:02.256Z,15.75
2018-09-04T03:05:34.937Z,15.73
2018-09-04T03:08:07.588Z,15.74
2018-09-04T03:10:41.545Z,15.72
2018-09-04T03:13:13.944Z,15.71
2018-09-04T03:15:46.579Z,15.75
2018-09-04T03:18:19.568Z,15.77
2018-09-04T03:20:52.132Z,15.73
2018-09-04T03:23:25.009Z,15.66
2018-09-04T03:25:57.928Z,15.72
2018-09-04T03:28:30.437Z,15.73
2018-09-04T03:31:03.081Z,15.69
2018-09-04T03:33:36.013Z,15.62
2018-09-04T03:36:08.663Z,15.55
2018-09-04T03:38:41.160Z,15.48
2018-09-04T03:41:14.301Z,15.40
2018-09-04T03:43:46.735Z,15.32
2018-09-04T03:46:20.100Z,15.32
2018-09-04T03:48:53.213Z,15.34
2018-09-04T03:51:25.949Z,15.33
2018-09-04T03:53:58.749Z,15.31
2018-09-04T03:56:31.678Z,15.22
2018-09-04T03:59:04.286Z,15.17
2018-09-04T04:01:36.835Z,15.10
2018-09-04T04:04:09.792Z,15.05
2018-09-04T04:06:42.481Z,14.97
2018-09-04T04:09:15.180Z,14.89
2018-09-04T04:11:48.181Z,14.81
2018-09-04T04:14:21.723Z,14.79
2018-09-04T04:16:54.634Z,14.78
2018-09-04T04:19:27.509Z,14.86
2018-09-04T04:22:00.100Z,15.00
2018-09-04T04:24:32.697Z,15.05
2018-09-04T04:27:07.736Z,15.08
2018-09-04T04:29:40.709Z,14.95
2018-09-04T04:32:13.525Z,14.90
2018-09-04T04:34:48.598Z,14.79
2018-09-04T04:37:22.796Z,14.70
2018-09-04T04:39:56.595Z,14.63
2018-09-04T04:42:29.568Z,14.67
2018-09-04T04:45:03.764Z,14.72
2018-09-04T04:47:42.472Z,14.73
2018-09-04T04:50:15.060Z,14.68
2018-09-04T04:52:47.577Z,14.65
2018-09-04T04:55:20.204Z,14.54
2018-09-04T04:57:52.805Z,14.48
2018-09-04T05:00:25.558Z,14.49
2018-09-04T05:02:58.989Z,14.58
2018-09-04T05:05:31.814Z,14.54
2018-09-04T05:08:04.584Z,14.57
2018-09-04T05:10:39.467Z,14.63
2018-09-04T05:13:12.926Z,14.58
2018-09-04T05:15:45.819Z,14.56
2018-09-04T05:18:19.569Z,14.53
2018-09-04T05:20:53.616Z,14.49
2018-09-04T05:23:26.163Z,14.76
2018-09-04T05:26:01.269Z,14.76
2018-09-04T05:28:33.976Z,14.68
2018-09-04T05:31:06.916Z,14.57
2018-09-04T05:33:42.928Z,14.60
2018-09-04T05:36:16.325Z,14.65
2018-09-04T05:38:49.627Z,14.61
2018-09-04T05:41:22.229Z,14.60
2018-09-04T05:43:58.526Z,14.72
2018-09-04T05:46:38.954Z,14.78
2018-09-04T05:49:13.644Z,14.79
2018-09-04T05:51:49.129Z,14.81
2018-09-04T05:54:22.705Z,14.87
2018-09-04T05:56:56.729Z,14.96
2018-09-04T05:59:29.496Z,15.05
2018-09-04T06:02:02.426Z,15.15
2018-09-04T06:04:36.493Z,15.17
2018-09-04T06:07:10.627Z,15.30
2018-09-04T06:09:44.263Z,15.39
2018-09-04T06:12:17.973Z,15.59
2018-09-04T06:14:50.614Z,15.73
2018-09-04T06:17:23.958Z,15.67
2018-09-04T06:19:57.234Z,15.64
2018-09-04T06:22:29.802Z,15.69
2018-09-04T06:25:03.281Z,15.75
2018-09-04T06:27:35.815Z,15.87
2018-09-04T06:30:08.254Z,15.96
2018-09-04T06:32:41.189Z,16.06
2018-09-04T06:35:14.000Z,16.17
2018-09-04T06:37:46.583Z,16.29
2018-09-04T06:40:20.489Z,16.41
2018-09-04T06:42:54.307Z,16.52
2018-09-04T06:45:27.703Z,16.62
2018-09-04T06:48:04.451Z,16.78
2018-09-04T06:50:38.584Z,16.89
2018-09-04T06:53:13.729Z,17.03
2018-09-04T06:55:46.922Z,17.17
2018-09-04T06:58:26.792Z,17.29
2018-09-04T07:01:07.223Z,17.42
2018-09-04T07:03:40.753Z,17.54
2018-09-04T07:06:15.276Z,17.70
2018-09-04T07:08:47.967Z,17.83
2018-09-04T07:11:20.765Z,17.96
2018-09-04T07:13:57.220Z,18.10
2018-09-04T07:16:29.912Z,18.22
2018-09-04T07:19:02.556Z,18.35
2018-09-04T07:21:36.939Z,18.50
2018-09-04T07:24:09.492Z,18.66
2018-09-04T07:26:44.022Z,18.81
2018-09-04T07:29:17.217Z,18.94
2018-09-04T07:31:50.796Z,19.10
2018-09-04T07:34:25.740Z,19.17
2018-09-04T07:37:02.063Z,19.25
2018-09-04T07:39:38.284Z,19.33
2018-09-04T07:42:11.319Z,19.42
2018-09-04T07:44:46.205Z,19.56
2018-09-04T07:47:18.826Z,19.69
2018-09-04T07:49:54.403Z,19.86
2018-09-04T07:52:35.525Z,20.07
2018-09-04T07:55:09.798Z,20.61
2018-09-04T07:57:51.998Z,21.24
2018-09-04T08:00:29.264Z,22.03
2018-09-04T08:03:03.617Z,22.69
2018-09-04T08:05:42.169Z,22.87
2018-09-04T08:08:17.136Z,23.00
2018-09-04T08:10:53.448Z,23.32
2018-09-04T08:13:31.822Z,23.22
2018-09-04T08:16:05.949Z,23.29
2018-09-04T08:18:40.077Z,23.65
2018-09-04T08:21:14.529Z,24.11
2018-09-04T08:23:51.022Z,24.29
2018-09-04T08:26:24.921Z,24.60
2018-09-04T08:28:57.776Z,24.85
2018-09-04T08:31:30.348Z,24.83
2018-09-04T08:34:04.370Z,25.06
2018-09-04T08:36:38.633Z,25.03
2018-09-04T08:39:11.416Z,24.86
2018-09-04T08:41:45.079Z,24.55
2018-09-04T08:44:18.585Z,24.78
2018-09-04T08:46:51.179Z,25.22
2018-09-04T08:49:24.365Z,25.43
2018-09-04T08:51:59.313Z,25.44
2018-09-04T08:54:33.129Z,25.49
2018-09-04T08:57:06.772Z,25.29
2018-09-04T08:59:43.473Z,24.94
2018-09-04T09:02:16.494Z,24.76
2018-09-04T09:04:50.081Z,24.87
2018-09-04T09:07:22.508Z,25.07
2018-09-04T09:09:56.001Z,25.01
2018-09-04T09:12:29.301Z,24.74
2018-09-04T09:15:06.710Z,24.56
2018-09-04T09:17:39.919Z,24.64
2018-09-04T09:20:14.490Z,25.03
2018-09-04T09:22:47.210Z,24.76
2018-09-04T09:25:19.712Z,24.65
2018-09-04T09:27:53.275Z,25.18
2018-09-04T09:30:33.752Z,25.96
2018-09-04T09:33:10.185Z,26.41
2018-09-04T09:35:42.687Z,26.77
2018-09-04T09:38:17.664Z,26.94
2018-09-04T09:40:52.683Z,27.30
2018-09-04T09:43:27.324Z,27.61
2018-09-04T09:46:00.925Z,27.05
2018-09-04T09:48:40.031Z,26.58
2018-09-04T09:51:20.359Z,26.44
2018-09-04T09:53:54.219Z,27.01
2018-09-04T09:56:31.017Z,27.77
2018-09-04T09:59:04.241Z,28.19
2018-09-04T10:01:43.565Z,28.29
2018-09-04T10:04:21.789Z,28.30
2018-09-04T10:06:58.266Z,28.07
2018-09-04T10:09:33.521Z,28.02
2018-09-04T10:12:06.961Z,27.70
2018-09-04T10:14:39.719Z,27.62
2018-09-04T10:17:13.803Z,27.61
2018-09-04T10:19:47.355Z,27.48
2018-09-04T10:22:21.470Z,27.40
2018-09-04T10:24:59.096Z,27.65
2018-09-04T10:27:31.952Z,27.93
2018-09-04T10:30:12.744Z,28.33
2018-09-04T10:32:52.324Z,28.19
2018-09-04T10:35:24.853Z,27.94
2018-09-04T10:38:00.640Z,27.74
2018-09-04T10:40:44.513Z,27.52
2018-09-04T10:43:29.633Z,27.22
2018-09-04T10:46:07.560Z,27.47
2018-09-04T10:48:44.801Z,27.76
2018-09-04T10:51:22.242Z,28.30
2018-09-04T10:53:54.818Z,28.80
2018-09-04T10:56:29.940Z,28.88
2018-09-04T10:59:04.901Z,28.40
2018-09-04T11:01:39.558Z,27.98
2018-09-04T11:04:13.760Z,27.75
2018-09-04T11:06:48.432Z,27.55
2018-09-04T11:09:21.689Z,27.21
2018-09-04T11:11:55.577Z,27.28
2018-09-04T11:14:28.735Z,27.29
2018-09-04T11:17:01.337Z,27.50
2018-09-04T11:19:34.393Z,27.56
2018-09-04T11:22:10.133Z,27.78
2018-09-04T11:24:42.776Z,27.97
2018-09-04T11:27:16.117Z,28.30
2018-09-04T11:29:51.372Z,28.48
2018-09-04T11:32:25.376Z,28.33
2018-09-04T11:34:57.956Z,28.13
2018-09-04T11:37:30.697Z,28.15
2018-09-04T11:40:03.978Z,28.29
2018-09-04T11:42:36.814Z,28.31
2018-09-04T11:45:10.226Z,28.58
2018-09-04T11:47:45.040Z,29.05
2018-09-04T11:50:18.350Z,29.41
2018-09-04T11:52:51.916Z,29.32
2018-09-04T11:55:26.176Z,28.94
2018-09-04T11:57:59.013Z,28.72
2018-09-04T12:00:38.423Z,28.63
2018-09-04T12:03:13.177Z,28.94
2018-09-04T12:05:49.169Z,29.30
2018-09-04T12:08:21.553Z,29.37
2018-09-04T12:10:58.107Z,29.59
2018-09-04T12:13:32.037Z,29.83
2018-09-04T12:16:05.664Z,29.88
2018-09-04T12:18:39.779Z,29.33
2018-09-04T12:21:13.353Z,29.46
2018-09-04T12:23:46.785Z,29.71
2018-09-04T12:26:21.721Z,29.37
2018-09-04T12:28:54.964Z,29.06
2018-09-04T12:31:29.418Z,29.12
2018-09-04T12:34:02.404Z,29.53
2018-09-04T12:36:35.555Z,29.85
2018-09-04T12:39:08.575Z,30.22
2018-09-04T12:41:41.245Z,30.81
2018-09-04T12:44:13.984Z,31.20
2018-09-04T12:46:47.397Z,31.58
2018-09-04T12:49:20.092Z,32.21
2018-09-04T12:51:56.738Z,32.76
2018-09-04T12:54:32.456Z,33.36
2018-09-04T12:57:05.999Z,33.41
2018-09-04T12:59:43.707Z,32.96
2018-09-04T13:02:16.708Z,32.33
2018-09-04T13:04:49.339Z,31.93
2018-09-04T13:07:22.865Z,31.48
2018-09-04T13:09:56.004Z,31.03
2018-09-04T13:12:31.324Z,30.52
2018-09-04T13:15:08.888Z,30.32
2018-09-04T13:17:44.155Z,29.93
2018-09-04T13:20:24.225Z,29.51
2018-09-04T13:22:56.828Z,29.60
2018-09-04T13:25:30.813Z,29.74
2018-09-04T13:28:05.542Z,29.54
2018-09-04T13:30:41.897Z,29.53
2018-09-04T13:33:14.749Z,29.50
2018-09-04T13:35:49.949Z,29.28
2018-09-04T13:38:23.417Z,29.51
2018-09-04T13:41:09.750Z,29.52
2018-09-04T13:43:43.372Z,29.77
2018-09-04T13:46:17.676Z,30.12
2018-09-04T13:48:56.352Z,30.31
2018-09-04T13:51:29.488Z,30.64
2018-09-04T13:54:02.566Z,31.32
2018-09-04T13:56:37.440Z,32.08
2018-09-04T13:59:10.839Z,32.18
2018-09-04T14:01:47.245Z,32.21
2018-09-04T14:04:26.970Z,31.98
2018-09-04T14:07:04.048Z,31.79
2018-09-04T14:09:39.061Z,31.94
2018-09-04T14:12:15.183Z,31.57
2018-09-04T14:14:51.331Z,31.64
2018-09-04T14:17:29.219Z,31.72
2018-09-04T14:20:04.214Z,31.12
2018-09-04T14:22:37.949Z,30.09
2018-09-04T14:25:12.844Z,28.78
2018-09-04T14:27:47.380Z,27.15
2018-09-04T14:30:26.374Z,25.18
2018-09-04T14:33:01.738Z,22.87
2018-09-04T14:35:38.936Z,21.41
2018-09-04T14:38:13.367Z,20.71
2018-09-04T14:40:47.650Z,20.45
2018-09-04T14:43:20.436Z,20.28
2018-09-04T14:45:54.654Z,20.19
2018-09-04T14:48:27.345Z,20.20
2018-09-04T14:51:00.873Z,20.22
2018-09-04T14:53:34.792Z,20.22
2018-09-04T14:56:09.615Z,20.20
2018-09-04T14:58:43.024Z,20.19
2018-09-04T15:01:18.827Z,20.23
2018-09-04T15:03:52.828Z,20.19
2018-09-04T15:06:26.237Z,20.22
2018-09-04T15:09:00.040Z,20.28
2018-09-04T15:11:34.351Z,20.42
2018-09-04T15:14:08.965Z,20.52
2018-09-04T15:16:42.610Z,20.47
2018-09-04T15:19:15.489Z,20.45
2018-09-04T15:21:50.362Z,20.40
2018-09-04T15:24:23.545Z,20.37
2018-09-04T15:27:02.768Z,20.37
2018-09-04T15:29:40.253Z,20.40
2018-09-04T15:32:13.155Z,20.32
2018-09-04T15:34:48.554Z,20.27
2018-09-04T15:37:21.962Z,20.23
2018-09-04T15:39:55.802Z,20.22
2018-09-04T15:42:31.171Z,20.07
2018-09-04T15:45:06.353Z,19.97
2018-09-04T15:47:39.953Z,19.94
2018-09-04T15:50:13.415Z,19.83
2018-09-04T15:52:50.095Z,19.74
2018-09-04T15:55:23.549Z,19.64
2018-09-04T15:57:57.477Z,19.51
2018-09-04T16:00:30.653Z,19.39
2018-09-04T16:03:04.328Z,19.32
2018-09-04T16:05:41.028Z,19.29
2018-09-04T16:08:19.473Z,19.30
2018-09-04T16:10:57.670Z,19.32
2018-09-04T16:13:36.553Z,19.41
2018-09-04T16:16:18.067Z,19.37
2018-09-04T16:19:04.828Z,19.32
2018-09-04T16:21:41.342Z,19.26
2018-09-04T16:24:21.020Z,19.23
2018-09-04T16:26:54.641Z,19.23
2018-09-04T16:29:28.596Z,19.25
2018-09-04T16:32:01.257Z,19.25
2018-09-04T16:34:35.379Z,19.27
2018-09-04T16:37:09.396Z,19.31
2018-09-04T16:39:45.804Z,19.35
2018-09-04T16:42:21.176Z,19.48
2018-09-04T16:44:57.292Z,19.50
2018-09-04T16:47:30.531Z,19.52
2018-09-04T16:50:05.264Z,19.45
2018-09-04T16:52:47.621Z,19.40
2018-09-04T16:55:39.210Z,19.36
2018-09-04T16:58:12.498Z,19.31
2018-09-04T17:00:47.893Z,19.26
2018-09-04T17:03:21.722Z,19.26
2018-09-04T17:05:57.810Z,19.25
2018-09-04T17:08:35.717Z,19.25
2018-09-04T17:11:14.324Z,19.28
2018-09-04T17:13:56.457Z,19.29
2018-09-04T17:16:32.210Z,19.31
2018-09-04T17:19:10.257Z,19.37
2018-09-04T17:21:46.775Z,19.38
2018-09-04T17:24:25.249Z,19.39
2018-09-04T17:26:59.477Z,19.44
2018-09-04T17:29:37.876Z,19.49
2018-09-04T17:32:15.748Z,19.53
2018-09-04T17:35:01.049Z,19.51
2018-09-04T17:37:37.179Z,19.58
2018-09-04T17:40:12.985Z,19.53
2018-09-04T17:42:50.717Z,19.42
2018-09-04T17:45:29.066Z,19.35
2018-09-04T17:48:04.005Z,19.39
2018-09-04T17:50:41.246Z,19.54
2018-09-04T17:53:16.010Z,19.58
2018-09-04T17:55:50.021Z,19.43
2018-09-04T17:58:24.794Z,19.29
2018-09-04T18:00:58.444Z,19.18
2018-09-04T18:03:32.203Z,19.09
2018-09-04T18:06:10.514Z,19.05
2018-09-04T18:08:44.971Z,19.04
2018-09-04T18:11:20.899Z,19.10
2018-09-04T18:13:55.204Z,19.08
2018-09-04T18:16:28.789Z,19.07
2018-09-04T18:19:02.513Z,19.13
2018-09-04T18:21:37.620Z,19.09
2018-09-04T18:24:11.814Z,19.16
2018-09-04T18:26:48.366Z,19.11
2018-09-04T18:29:20.909Z,19.05
2018-09-04T18:31:55.574Z,19.08
2018-09-04T18:34:28.490Z,19.00
2018-09-04T18:37:03.634Z,18.93
2018-09-04T18:39:42.203Z,18.87
2018-09-04T18:42:16.656Z,18.83
2018-09-04T18:44:49.547Z,18.80
2018-09-04T18:47:24.768Z,18.78
2018-09-04T18:49:58.301Z,18.75
2018-09-04T18:52:32.138Z,18.70
2018-09-04T18:55:07.763Z,18.68
2018-09-04T18:57:41.031Z,18.67
2018-09-04T19:00:15.000Z,18.67
2018-09-04T19:02:50.093Z,18.68
2018-09-04T19:05:26.844Z,18.69
2018-09-04T19:08:01.786Z,18.68
2018-09-04T19:10:36.372Z,18.67
2018-09-04T19:13:11.337Z,18.64
2018-09-04T19:15:44.267Z,18.60
2018-09-04T19:18:17.645Z,18.58
2018-09-04T19:20:51.594Z,18.54
2018-09-04T19:23:28.033Z,18.54
2018-09-04T19:26:01.351Z,18.51
2018-09-04T19:28:35.197Z,18.47
2018-09-04T19:31:08.083Z,18.44
2018-09-04T19:33:41.685Z,18.41
2018-09-04T19:36:16.292Z,18.40
2018-09-04T19:38:51.692Z,18.38
2018-09-04T19:41:24.325Z,18.48
2018-09-04T19:43:58.637Z,18.45
2018-09-04T19:46:34.634Z,18.40
2018-09-04T19:49:10.784Z,18.36
2018-09-04T19:51:46.701Z,18.30
2018-09-04T19:54:23.600Z,18.25
2018-09-04T19:56:59.952Z,18.23
2018-09-04T19:59:33.667Z,18.21
2018-09-04T20:02:09.664Z,18.30
2018-09-04T20:04:45.200Z,18.30
2018-09-04T20:09:54.265Z,18.29
2018-09-04T20:12:28.250Z,18.25
2018-09-04T20:15:07.743Z,18.18
2018-09-04T20:17:41.070Z,18.14
2018-09-04T20:20:15.262Z,18.12
2018-09-04T20:22:50.287Z,18.10
2018-09-04T20:25:24.602Z,18.07
2018-09-04T20:27:57.426Z,18.03
2018-09-04T20:30:34.339Z,18.00
2018-09-04T20:33:09.208Z,18.10
2018-09-04T20:35:44.292Z,18.18
2018-09-04T20:38:18.577Z,18.13
2018-09-04T20:40:52.233Z,18.09
2018-09-04T20:43:25.156Z,18.18
2018-09-04T20:45:59.979Z,18.14
2018-09-04T20:48:34.026Z,18.09
2018-09-04T20:51:07.675Z,18.16
2018-09-04T20:53:42.107Z,18.10
2018-09-04T20:56:23.045Z,18.02
2018-09-04T20:59:18.922Z,17.99
2018-09-04T21:02:17.550Z,18.08
2018-09-04T21:05:15.292Z,18.15
2018-09-04T21:08:47.096Z,18.10
2018-09-04T21:11:20.489Z,18.10
2018-09-04T21:13:57.899Z,18.08
2018-09-04T21:16:36.229Z,18.05
2018-09-04T21:19:11.159Z,18.04
2018-09-04T21:21:46.326Z,18.10
2018-09-04T21:24:19.061Z,18.18
2018-09-04T21:26:53.087Z,18.23
2018-09-04T21:29:26.308Z,18.16
2018-09-04T21:32:00.701Z,18.13
2018-09-04T21:34:33.337Z,18.12
2018-09-04T21:37:08.344Z,18.12
2018-09-04T21:39:44.604Z,18.14
2018-09-04T21:42:18.665Z,18.17
2018-09-04T21:44:52.644Z,18.18
2018-09-04T21:47:26.828Z,18.21
2018-09-04T21:49:59.484Z,18.21
2018-09-04T21:52:34.192Z,18.18
2018-09-04T21:55:08.257Z,18.16
2018-09-04T21:57:42.273Z,18.16
2018-09-04T22:00:23.890Z,18.14
2018-09-04T22:02:58.043Z,18.10
2018-09-04T22:05:32.887Z,18.07
2018-09-04T22:08:07.125Z,18.07
2018-09-04T22:10:44.036Z,18.11
2018-09-04T22:13:18.215Z,18.05
2018-09-04T22:15:51.935Z,18.05
2018-09-04T22:18:27.499Z,18.03
2018-09-04T22:21:08.769Z,18.01
2018-09-04T22:23:44.588Z,17.99
2018-09-04T22:26:19.565Z,17.97
2018-09-04T22:28:53.727Z,17.97
2018-09-04T22:31:26.360Z,17.99
2018-09-04T22:33:59.475Z,18.00
2018-09-04T22:36:33.259Z,18.03
2018-09-04T22:39:08.826Z,18.09
2018-09-04T22:41:42.022Z,18.09
2018-09-04T22:44:15.585Z,18.09
2018-09-04T22:46:49.318Z,17.97
2018-09-04T22:49:21.992Z,17.84
2018-09-04T22:52:02.097Z,17.73
2018-09-04T22:54:36.952Z,17.71
2018-09-04T22:57:12.717Z,17.69
2018-09-04T22:59:46.575Z,17.68
2018-09-04T23:02:20.703Z,17.71
2018-09-04T23:04:53.412Z,17.71
2018-09-04T23:07:26.779Z,17.63
2018-09-04T23:09:59.408Z,17.53
2018-09-04T23:12:32.788Z,17.46
2018-09-04T23:15:07.037Z,17.37
2018-09-04T23:17:39.801Z,17.30
2018-09-04T23:20:12.757Z,17.27
2018-09-04T23:22:46.256Z,17.25
2018-09-04T23:25:18.900Z,17.26
2018-09-04T23:27:51.652Z,17.23
2018-09-04T23:30:26.269Z,17.21
2018-09-04T23:33:00.993Z,17.19
2018-09-04T23:35:34.162Z,17.18
2018-09-04T23:38:09.052Z,17.17
2018-09-04T23:40:42.304Z,17.15
2018-09-04T23:43:14.956Z,17.13
2018-09-04T23:45:48.849Z,17.11
2018-09-04T23:48:21.548Z,17.14
2018-09-04T23:50:54.849Z,17.07
2018-09-04T23:53:28.860Z,17.04
2018-09-04T23:56:01.645Z,17.03
2018-09-04T23:58:36.636Z,17.07
